Time,TemperatureF,DewpointF,PressureIn,WindDirection,WindDirectionDegrees,WindSpeedMPH,WindSpeedGustMPH,Humidity,HourlyPrecipIn,Conditions,Clouds,dailyrainin,SolarRadiationWatts/m^2,SoftwareType,DateUTC
2013-09-25 00:14:00,79.0,75.0,-100.00,South,183,1.0,3.0,89,0.00,,,0.00,0.000000,,2013-09-25 04:14:00,
2013-09-25 00:24:00,79.0,75.0,-100.00,South,183,1.0,3.0,89,0.00,,,0.00,0.000000,,2013-09-25 04:24:00,
2013-09-25 00:34:00,79.0,75.0,-100.00,South,183,1.0,3.0,89,0.00,,,0.00,0.000000,,2013-09-25 04:34:00,
2013-09-25 01:13:00,79.0,76.0,-100.00,South,187,2.0,3.0,90,0.00,,,0.00,0.000000,,2013-09-25 05:13:00,
2013-09-25 01:23:00,79.0,76.0,-100.00,South,187,2.0,3.0,90,0.00,,,0.00,0.000000,,2013-09-25 05:23:00,
2013-09-25 01:34:00,79.0,76.0,-100.00,South,187,2.0,3.0,90,0.00,,,0.00,0.000000,,2013-09-25 05:34:00,
2013-09-25 02:13:00,78.0,75.0,-100.00,NNE,29,1.0,4.0,91,0.00,,,0.00,0.000000,,2013-09-25 06:13:00,
2013-09-25 02:23:00,78.0,75.0,-100.00,NNE,29,1.0,4.0,91,0.00,,,0.00,0.000000,,2013-09-25 06:23:00,
2013-09-25 02:32:00,78.0,75.0,-100.00,NNE,29,1.0,4.0,91,0.00,,,0.00,0.000000,,2013-09-25 06:32:00,
2013-09-25 03:12:00,78.0,75.0,-100.00,South,174,2.0,3.0,92,0.00,,,0.00,0.000000,,2013-09-25 07:12:00,
2013-09-25 03:22:00,78.0,75.0,-100.00,South,174,2.0,3.0,92,0.00,,,0.00,0.000000,,2013-09-25 07:22:00,
2013-09-25 03:33:00,78.0,75.0,-100.00,South,174,2.0,3.0,92,0.00,,,0.00,0.000000,,2013-09-25 07:33:00,
2013-09-25 04:12:00,77.0,74.0,-100.00,SSE,149,1.0,2.0,92,0.00,,,0.00,0.000000,,2013-09-25 08:12:00,
2013-09-25 04:22:00,77.0,74.0,-100.00,SSE,149,1.0,2.0,92,0.00,,,0.00,0.000000,,2013-09-25 08:22:00,
2013-09-25 04:32:00,77.0,74.0,-100.00,SSE,149,1.0,2.0,92,0.00,,,0.00,0.000000,,2013-09-25 08:32:00,
2013-09-25 05:11:00,77.0,75.0,-100.00,SSE,156,2.0,3.0,93,0.00,,,0.00,0.000000,,2013-09-25 09:11:00,
2013-09-25 05:22:00,77.0,75.0,-100.00,SSE,156,2.0,3.0,93,0.00,,,0.00,0.000000,,2013-09-25 09:22:00,
2013-09-25 05:33:00,77.0,75.0,-100.00,SSE,156,2.0,3.0,93,0.00,,,0.00,0.000000,,2013-09-25 09:33:00,
2013-09-25 06:12:00,79.0,76.0,-100.00,SSE,167,2.0,5.0,92,0.00,,,0.00,0.000000,,2013-09-25 10:12:00,
2013-09-25 06:23:00,79.0,76.0,-100.00,SSE,167,2.0,5.0,92,0.00,,,0.00,0.000000,,2013-09-25 10:23:00,
2013-09-25 06:32:00,79.0,76.0,-100.00,SSE,167,2.0,5.0,92,0.00,,,0.00,0.000000,,2013-09-25 10:32:00,
2013-09-25 07:12:00,80.0,77.0,-100.00,South,180,3.0,5.0,91,0.00,,,0.00,0.000000,,2013-09-25 11:12:00,
2013-09-25 07:22:00,80.0,77.0,-100.00,South,180,3.0,5.0,91,0.00,,,0.00,0.000000,,2013-09-25 11:22:00,
2013-09-25 07:33:00,80.0,77.0,-100.00,South,180,3.0,5.0,91,0.00,,,0.00,0.000000,,2013-09-25 11:33:00,
2013-09-25 08:12:00,80.0,75.0,-100.00,SSE,157,2.0,6.0,86,0.00,,,0.00,3.000000,,2013-09-25 12:12:00,
2013-09-25 08:22:00,80.0,75.0,-100.00,SSE,157,2.0,6.0,86,0.00,,,0.00,3.000000,,2013-09-25 12:22:00,
2013-09-25 08:32:00,80.0,75.0,-100.00,SSE,157,2.0,6.0,86,0.00,,,0.00,3.000000,,2013-09-25 12:32:00,
2013-09-25 09:12:00,84.0,78.0,-100.00,South,180,4.0,6.0,83,0.00,,,0.00,78.000000,,2013-09-25 13:12:00,
2013-09-25 09:22:00,84.0,78.0,-100.00,South,180,4.0,6.0,83,0.00,,,0.00,78.000000,,2013-09-25 13:22:00,
2013-09-25 09:32:00,84.0,78.0,-100.00,South,180,4.0,6.0,83,0.00,,,0.00,78.000000,,2013-09-25 13:32:00,
2013-09-25 10:11:00,88.0,77.0,-100.00,SSW,201,5.0,9.0,70,0.00,,,0.00,302.000000,,2013-09-25 14:11:00,
2013-09-25 10:22:00,88.0,77.0,-100.00,SSW,201,5.0,9.0,70,0.00,,,0.00,302.000000,,2013-09-25 14:22:00,
2013-09-25 10:32:00,88.0,77.0,-100.00,SSW,201,5.0,9.0,70,0.00,,,0.00,302.000000,,2013-09-25 14:32:00,
2013-09-25 11:11:00,89.0,78.0,-100.00,SW,216,5.0,9.0,70,0.00,,,0.00,439.000000,,2013-09-25 15:11:00,
2013-09-25 11:22:00,89.0,78.0,-100.00,SW,216,5.0,9.0,70,0.00,,,0.00,439.000000,,2013-09-25 15:22:00,
2013-09-25 11:33:00,89.0,78.0,-100.00,SW,216,5.0,9.0,70,0.00,,,0.00,439.000000,,2013-09-25 15:33:00,
2013-09-25 12:13:00,91.0,77.0,-100.00,SW,216,6.0,10.0,63,0.00,,,0.00,617.000000,,2013-09-25 16:13:00,
2013-09-25 12:23:00,91.0,77.0,-100.00,SW,216,6.0,10.0,63,0.00,,,0.00,617.000000,,2013-09-25 16:23:00,
2013-09-25 12:33:00,91.0,77.0,-100.00,SW,216,6.0,10.0,63,0.00,,,0.00,617.000000,,2013-09-25 16:33:00,
2013-09-25 13:13:00,91.0,77.0,-100.00,SW,235,6.0,12.0,64,0.00,,,0.00,590.000000,,2013-09-25 17:13:00,
2013-09-25 13:23:00,91.0,77.0,-100.00,SW,235,6.0,12.0,64,0.00,,,0.00,590.000000,,2013-09-25 17:23:00,
2013-09-25 13:34:00,91.0,77.0,-100.00,SW,235,6.0,12.0,64,0.00,,,0.00,590.000000,,2013-09-25 17:34:00,
2013-09-25 14:13:00,91.0,77.0,-100.00,SW,215,7.0,13.0,64,0.00,,,0.00,556.000000,,2013-09-25 18:13:00,
2013-09-25 14:22:00,91.0,77.0,-100.00,SW,215,7.0,13.0,64,0.00,,,0.00,556.000000,,2013-09-25 18:22:00,
2013-09-25 14:32:00,91.0,77.0,-100.00,SW,215,7.0,13.0,64,0.00,,,0.00,556.000000,,2013-09-25 18:32:00,
2013-09-25 15:11:00,92.0,76.0,-100.00,SW,216,8.0,13.0,59,0.00,,,0.00,543.000000,,2013-09-25 19:11:00,
2013-09-25 15:22:00,92.0,76.0,-100.00,SW,216,8.0,13.0,59,0.00,,,0.00,543.000000,,2013-09-25 19:22:00,
2013-09-25 15:32:00,92.0,76.0,-100.00,SW,216,8.0,13.0,59,0.00,,,0.00,543.000000,,2013-09-25 19:32:00,
2013-09-25 16:12:00,90.0,78.0,-100.00,WNW,291,8.0,15.0,67,0.00,,,0.00,258.000000,,2013-09-25 20:12:00,
2013-09-25 16:22:00,90.0,78.0,-100.00,WNW,291,8.0,15.0,67,0.00,,,0.00,258.000000,,2013-09-25 20:22:00,
2013-09-25 16:32:00,90.0,78.0,-100.00,WNW,291,8.0,15.0,67,0.00,,,0.00,258.000000,,2013-09-25 20:32:00,
2013-09-25 17:12:00,91.0,77.0,-100.00,WNW,293,7.0,15.0,63,0.00,,,0.00,488.000000,,2013-09-25 21:12:00,
2013-09-25 17:22:00,91.0,77.0,-100.00,WNW,293,7.0,15.0,63,0.00,,,0.00,488.000000,,2013-09-25 21:22:00,
2013-09-25 17:34:00,91.0,77.0,-100.00,WNW,293,7.0,15.0,63,0.00,,,0.00,488.000000,,2013-09-25 21:34:00,
2013-09-25 18:14:00,89.0,75.0,-100.00,West,273,6.0,12.0,63,0.00,,,0.00,347.000000,,2013-09-25 22:14:00,
2013-09-25 18:23:00,89.0,75.0,-100.00,West,273,6.0,12.0,63,0.00,,,0.00,347.000000,,2013-09-25 22:23:00,
2013-09-25 18:33:00,89.0,75.0,-100.00,West,273,6.0,12.0,63,0.00,,,0.00,347.000000,,2013-09-25 22:33:00,
2013-09-25 19:12:00,85.0,74.0,-100.00,WNW,286,6.0,12.0,70,0.00,,,0.00,156.000000,,2013-09-25 23:12:00,
2013-09-25 19:23:00,85.0,74.0,-100.00,WNW,286,6.0,12.0,70,0.00,,,0.00,156.000000,,2013-09-25 23:23:00,
2013-09-25 19:34:00,85.0,74.0,-100.00,WNW,286,6.0,12.0,70,0.00,,,0.00,156.000000,,2013-09-25 23:34:00,
2013-09-25 20:12:00,84.0,74.0,-100.00,WNW,283,6.0,12.0,73,0.00,,,0.00,29.000000,,2013-09-26 00:12:00,
2013-09-25 20:22:00,84.0,74.0,-100.00,WNW,283,6.0,12.0,73,0.00,,,0.00,29.000000,,2013-09-26 00:22:00,
2013-09-25 20:32:00,84.0,74.0,-100.00,WNW,283,6.0,12.0,73,0.00,,,0.00,29.000000,,2013-09-26 00:32:00,
2013-09-25 21:12:00,83.0,75.0,-100.00,West,259,4.0,13.0,78,0.00,,,0.00,0.000000,,2013-09-26 01:12:00,
2013-09-25 21:23:00,83.0,75.0,-100.00,West,259,4.0,13.0,78,0.00,,,0.00,0.000000,,2013-09-26 01:23:00,
2013-09-25 21:32:00,83.0,75.0,-100.00,West,259,4.0,13.0,78,0.00,,,0.00,0.000000,,2013-09-26 01:32:00,
2013-09-25 22:13:00,84.0,75.0,-100.00,WSW,239,5.0,10.0,75,0.00,,,0.00,0.000000,,2013-09-26 02:13:00,
2013-09-25 22:22:00,84.0,75.0,-100.00,WSW,239,5.0,10.0,75,0.00,,,0.00,0.000000,,2013-09-26 02:22:00,
2013-09-25 22:33:00,84.0,75.0,-100.00,WSW,239,5.0,10.0,75,0.00,,,0.00,0.000000,,2013-09-26 02:33:00,
2013-09-25 23:12:00,83.0,75.0,-100.00,SW,228,4.0,9.0,76,0.00,,,0.00,0.000000,,2013-09-26 03:12:00,
2013-09-25 23:23:00,83.0,75.0,-100.00,SW,228,4.0,9.0,76,0.00,,,0.00,0.000000,,2013-09-26 03:23:00,
2013-09-25 23:34:00,83.0,75.0,-100.00,SW,228,4.0,9.0,76,0.00,,,0.00,0.000000,,2013-09-26 03:34:00,